Time;durP1;ratioP1;P1;durP2;ratioP2;P2;SDS_P1;SDS_P2;PMS_P1;PMS_P2;Temp;Humidity;BMP_temperature;BMP_pressure;BME280_temperature;BME280_humidity;BME280_pressure;Samples;Min_cycle;Max_cycle;Signal;HPM_P1;HPM_P2
2021/10/25 00:00:34;;;;;;;0.80;0.80;;;;;;;-0.12;72.14;100993.50;4839071;29;20050;-77
2021/10/25 00:03:00;;;;;;;0.63;0.63;;;;;;;-0.17;71.76;100984.94;4839356;29;20486;-75
2021/10/25 00:05:26;;;;;;;1.40;1.33;;;;;;;-0.15;72.38;100996.91;4838859;29;20081;-77
2021/10/25 00:07:53;;;;;;;2.58;0.80;;;;;;;-0.19;72.41;101002.88;4839143;29;20069;-78
2021/10/25 00:10:19;;;;;;;0.70;0.70;;;;;;;-0.21;72.58;101008.84;4822629;29;20056;-76
2021/10/25 00:12:47;;;;;;;0.73;0.63;;;;;;;-0.24;72.15;101001.13;4839007;29;20053;-77
2021/10/25 00:17:53;;;;;;;0.60;0.60;;;;;;;-0.20;72.31;101002.88;4838808;29;20052;-78
2021/10/25 00:20:19;;;;;;;0.50;0.50;;;;;;;-0.22;72.46;101010.56;4855458;29;20125;-77
2021/10/25 00:22:45;;;;;;;1.13;1.02;;;;;;;-0.25;72.66;101010.53;4857294;29;20058;-76
2021/10/25 00:25:11;;;;;;;1.00;1.00;;;;;;;-0.28;72.71;101005.38;4840686;29;20089;-76
2021/10/25 00:27:38;;;;;;;0.68;0.68;;;;;;;-0.30;73.04;101007.09;4857221;29;20383;-75
2021/10/25 00:30:05;;;;;;;0.73;0.73;;;;;;;-0.33;73.61;101022.44;4857332;29;20050;-80
2021/10/25 00:32:31;;;;;;;1.65;0.75;;;;;;;-0.30;73.84;101029.31;4857662;29;20149;-80
2021/10/25 00:34:57;;;;;;;1.17;1.17;;;;;;;-0.32;73.56;101021.59;4841007;29;20049;-79
2021/10/25 00:37:23;;;;;;;0.68;0.68;;;;;;;-0.29;73.45;101026.72;4840841;29;20064;-79
2021/10/25 00:39:49;;;;;;;1.00;1.00;;;;;;;-0.34;73.67;101025.84;4826027;29;20045;-78
2021/10/25 00:42:15;;;;;;;0.82;0.82;;;;;;;-0.35;74.26;101033.53;4840911;29;20061;-78
2021/10/25 00:44:41;;;;;;;0.52;0.52;;;;;;;-0.37;74.39;101040.34;4840592;29;20045;-78
2021/10/25 00:47:08;;;;;;;0.60;0.60;;;;;;;-0.37;74.27;101033.53;4856954;29;20083;-79
2021/10/25 00:49:34;;;;;;;1.30;1.15;;;;;;;-0.41;74.33;101029.22;4840670;29;20517;-79
2021/10/25 00:52:00;;;;;;;1.17;1.17;;;;;;;-0.38;74.63;101039.50;4857418;29;20987;-79
2021/10/25 00:54:26;;;;;;;0.60;0.60;;;;;;;-0.35;73.96;101049.78;4827810;29;20543;-78
2021/10/25 00:56:53;;;;;;;1.33;1.33;;;;;;;-0.36;74.55;101042.91;4859541;29;20059;-78
2021/10/25 00:59:19;;;;;;;1.85;1.10;;;;;;;-0.35;74.40;101048.91;4860640;29;20058;-78
2021/10/25 01:01:45;;;;;;;0.90;0.90;;;;;;;-0.38;74.25;101057.44;4844108;29;20060;-77
2021/10/25 01:04:11;;;;;;;1.55;1.52;;;;;;;-0.39;75.04;101050.59;4860673;29;20049;-79
2021/10/25 01:06:39;;;;;;;0.70;0.70;;;;;;;-0.37;74.69;101056.63;4844084;29;20132;-78
2021/10/25 01:09:06;;;;;;;0.43;0.43;;;;;;;-0.43;74.78;101051.44;4844114;29;20068;-79
2021/10/25 01:11:36;;;;;;;0.52;0.52;;;;;;;-0.44;75.21;101052.28;4845198;29;20053;-77
2021/10/25 01:14:03;;;;;;;0.60;0.60;;;;;;;-0.44;75.33;101057.41;4864310;29;20050;-78
2021/10/25 01:16:29;;;;;;;1.05;1.05;;;;;;;-0.38;75.07;101060.00;4844339;29;20054;-78
2021/10/25 01:18:56;;;;;;;1.27;1.15;;;;;;;-0.35;74.63;101066.88;4840807;29;20480;-78
2021/10/25 01:21:22;;;;;;;1.70;1.60;;;;;;;-0.41;74.87;101057.44;4841456;29;20110;-77
2021/10/25 01:23:51;;;;;;;1.73;0.85;;;;;;;-0.45;75.50;101068.50;4826186;29;20094;-78
2021/10/25 01:26:18;;;;;;;1.10;1.10;;;;;;;-0.49;75.61;101061.59;4841132;29;20061;-80
2021/10/25 01:28:45;;;;;;;1.08;1.08;;;;;;;-0.50;76.10;101075.31;4841105;29;20136;-80
2021/10/25 01:31:12;;;;;;;1.38;1.10;;;;;;;-0.46;75.60;101079.63;4841061;29;20153;-77
2021/10/25 01:33:39;;;;;;;2.35;0.82;;;;;;;-0.52;75.78;101071.84;4841334;29;20050;-78
2021/10/25 01:36:06;;;;;;;1.20;1.10;;;;;;;-0.48;75.96;101081.28;4827496;29;20054;-76
2021/10/25 01:38:32;;;;;;;1.00;1.00;;;;;;;-0.51;75.90;101083.81;4857160;29;20497;-79
2021/10/25 01:40:59;;;;;;;0.60;0.60;;;;;;;-0.54;76.32;101084.66;4825986;29;20073;-81
2021/10/25 01:43:25;;;;;;;0.80;0.80;;;;;;;-0.49;75.98;101091.56;4841654;29;20437;-78
2021/10/25 01:45:51;;;;;;;0.60;0.60;;;;;;;-0.52;75.77;101088.09;4845057;29;20555;-78
2021/10/25 01:48:18;;;;;;;0.80;0.80;;;;;;;-0.52;76.10;101089.78;4813355;29;20082;-79
2021/10/25 01:50:44;;;;;;;12.60;1.52;;;;;;;-0.45;75.65;101094.13;4825251;29;20432;-79
2021/10/25 01:53:10;;;;;;;0.82;0.82;;;;;;;-0.48;75.58;101088.97;4825079;29;20069;-80
2021/10/25 01:55:43;;;;;;;0.90;0.90;;;;;;;-0.48;75.52;101098.38;4841105;29;20144;-79
2021/10/25 01:58:10;;;;;;;0.50;0.50;;;;;;;-0.51;75.64;101094.09;4840068;29;20058;-77
2021/10/25 02:00:36;;;;;;;0.50;0.50;;;;;;;-0.51;75.28;101094.09;4839985;29;20054;-78
2021/10/25 02:03:03;;;;;;;0.93;0.93;;;;;;;-0.51;75.33;101094.09;4840377;29;20118;-80
2021/10/25 02:05:45;;;;;;;0.60;0.60;;;;;;;-0.54;75.34;101102.63;4828696;29;20435;-78
2021/10/25 02:08:12;;;;;;;1.20;1.20;;;;;;;-0.55;75.57;101108.59;4839979;29;20081;-80
2021/10/25 02:10:49;;;;;;;1.27;1.27;;;;;;;-0.58;75.39;101112.81;4839805;29;20049;-78
2021/10/25 02:13:17;;;;;;;0.50;0.50;;;;;;;-0.56;75.75;101100.88;4839677;29;20145;-78
2021/10/25 02:15:45;;;;;;;0.88;0.88;;;;;;;-0.59;75.72;101117.06;4824509;29;20110;-76
2021/10/25 02:18:12;;;;;;;0.50;0.50;;;;;;;-0.61;75.83;101128.16;4824450;29;20062;-77
2021/10/25 02:20:39;;;;;;;0.85;0.85;;;;;;;-0.59;75.48;101127.34;4824378;29;20061;-76
2021/10/25 02:23:08;;;;;;;0.52;0.52;;;;;;;-0.74;75.98;101126.31;4824435;29;20050;-76
2021/10/25 02:25:35;;;;;;;0.60;0.60;;;;;;;-0.92;77.10;101121.00;4809123;29;20061;-77
2021/10/25 02:28:01;;;;;;;0.50;0.50;;;;;;;-0.91;79.12;101138.94;4840899;29;20061;-77
2021/10/25 02:30:28;;;;;;;1.25;1.25;;;;;;;-0.94;81.07;101138.91;4840443;29;20548;-77
2021/10/25 02:32:57;;;;;;;2.40;1.63;;;;;;;-0.92;80.85;101141.50;4824426;29;20057;-77
2021/10/25 02:35:23;;;;;;;1.15;1.15;;;;;;;-0.96;81.40;101142.28;4794092;29;20054;-78
2021/10/25 02:37:54;;;;;;;0.60;0.60;;;;;;;-1.08;82.14;101146.41;4809477;29;20077;-78
2021/10/25 02:40:23;;;;;;;0.50;0.50;;;;;;;-1.06;82.56;101149.88;4824073;29;20058;-77
2021/10/25 02:42:52;;;;;;;0.57;0.57;;;;;;;-1.08;82.40;101148.97;4809571;29;20095;-78
2021/10/25 02:45:18;;;;;;;1.02;1.02;;;;;;;-1.01;81.87;101151.63;4824260;29;20132;-77
2021/10/25 02:47:45;;;;;;;0.80;0.80;;;;;;;-0.98;81.03;101146.53;4808824;29;20078;-78
2021/10/25 02:50:13;;;;;;;0.80;0.80;;;;;;;-0.99;80.87;101150.81;4810088;29;20081;-78
2021/10/25 02:52:39;;;;;;;1.58;1.58;;;;;;;-0.82;78.13;101148.44;4841025;29;20081;-77
2021/10/25 02:55:05;;;;;;;0.95;0.95;;;;;;;-0.79;77.36;101140.78;4824531;29;20085;-75
2021/10/25 02:57:31;;;;;;;1.05;1.05;;;;;;;-0.71;76.62;101141.72;4849461;29;20062;-78
2021/10/25 02:59:57;;;;;;;0.82;0.82;;;;;;;-0.69;76.17;101145.19;4840672;29;20042;-78
2021/10/25 03:02:23;;;;;;;2.30;2.20;;;;;;;-0.69;76.54;101153.72;4833277;29;20049;-76
2021/10/25 03:04:49;;;;;;;0.85;0.85;;;;;;;-0.70;76.42;101158.84;4837456;29;20049;-78
2021/10/25 03:07:19;;;;;;;1.20;1.20;;;;;;;-0.74;76.46;101151.94;4830165;29;20057;-79
2021/10/25 03:09:46;;;;;;;1.30;1.20;;;;;;;-0.76;77.01;101148.53;4824405;29;20050;-78
2021/10/25 03:12:12;;;;;;;0.90;0.90;;;;;;;-0.77;76.59;101162.16;4840447;29;20050;-78
2021/10/25 03:14:39;;;;;;;1.23;1.23;;;;;;;-0.81;77.19;101165.53;4823858;29;20069;-77
2021/10/25 03:17:06;;;;;;;1.08;1.08;;;;;;;-0.86;76.70;101162.06;4808172;29;20077;-77
2021/10/25 03:19:41;;;;;;;1.13;1.13;;;;;;;-0.83;77.25;101162.09;4823778;29;20097;-77
2021/10/25 03:22:08;;;;;;;1.17;1.17;;;;;;;-0.82;76.69;101158.69;4840131;29;20138;-78
2021/10/25 03:24:35;;;;;;;3.55;1.42;;;;;;;-0.83;77.07;101172.34;4823549;29;20056;-78
2021/10/25 03:27:02;;;;;;;1.15;1.15;;;;;;;-0.83;76.90;101172.34;4823602;29;20050;-77
2021/10/25 03:29:29;;;;;;;0.82;0.82;;;;;;;-0.91;77.36;101179.06;4823374;29;20132;-78
2021/10/25 03:31:57;;;;;;;2.35;0.95;;;;;;;-0.92;78.05;101183.38;4824818;29;20053;-79
2021/10/25 03:34:23;;;;;;;0.73;0.73;;;;;;;-1.01;78.73;101174.69;4826594;29;20083;-80
2021/10/25 03:36:50;;;;;;;0.55;0.55;;;;;;;-1.05;79.63;101174.63;4808305;29;20069;-80
2021/10/25 03:39:21;;;;;;;1.55;1.00;;;;;;;-1.12;79.84;101172.84;4823493;29;20060;-79
2021/10/25 03:41:49;;;;;;;1.13;1.13;;;;;;;-1.19;80.88;101168.47;4823110;29;20065;-79
2021/10/25 03:44:22;;;;;;;0.82;0.82;;;;;;;-1.32;81.43;101171.69;4823263;29;20060;-78
2021/10/25 03:47:00;;;;;;;6.43;1.05;;;;;;;-1.26;82.37;101184.59;4823449;29;20053;-80
2021/10/25 03:55:37;;;;;;;0.73;0.73;;;;;;;-1.38;83.59;101197.22;4839270;29;20057;-80
2021/10/25 04:28:35;;;;;;;0.60;0.60;;;;;;;-1.76;85.94;101229.00;4818252;29;20151;-80
2021/10/25 04:31:02;;;;;;;6.82;2.67;;;;;;;-1.70;85.72;101229.97;4834548;29;20468;-80
2021/10/25 04:33:40;;;;;;;0.43;0.43;;;;;;;-1.68;85.75;101232.59;4804027;29;20161;-79
2021/10/25 04:36:18;;;;;;;0.70;0.70;;;;;;;-1.64;85.26;101226.69;4805831;29;20084;-78
2021/10/25 04:39:09;;;;;;;0.60;0.60;;;;;;;-1.43;85.08;101233.81;4835062;29;20054;-77
2021/10/25 04:41:37;;;;;;;1.48;1.48;;;;;;;-1.46;83.99;101238.91;4819116;29;20133;-79
2021/10/25 04:44:03;;;;;;;0.70;0.70;;;;;;;-1.53;83.75;101242.19;4819174;29;20101;-79
2021/10/25 04:46:29;;;;;;;0.85;0.85;;;;;;;-1.41;83.97;101243.28;4818369;29;20111;-77
2021/10/25 04:48:55;;;;;;;5.72;1.30;;;;;;;-0.53;82.75;101239.41;4834261;29;20058;-77
2021/10/25 04:51:28;;;;;;;0.75;0.75;;;;;;;0.61;77.17;101243.97;4832837;29;20229;-78
2021/10/25 04:54:02;;;;;;;0.73;0.73;;;;;;;0.98;73.47;101243.38;4819300;29;20545;-78
2021/10/25 04:56:32;;;;;;;2.00;1.90;;;;;;;1.57;71.81;101243.66;4819027;29;20050;-79
2021/10/25 04:58:59;;;;;;;1.05;1.05;;;;;;;1.57;70.60;101253.13;4819171;29;20054;-80
2021/10/25 05:01:25;;;;;;;0.93;0.93;;;;;;;1.82;69.53;101254.94;4832742;29;20115;-76
2021/10/25 05:03:53;;;;;;;2.70;2.45;;;;;;;2.47;67.01;101251.59;4837409;29;20579;-74
2021/10/25 05:06:19;;;;;;;1.58;1.58;;;;;;;2.94;65.24;101249.88;4838575;29;20517;-75
2021/10/25 05:08:49;;;;;;;1.92;1.75;;;;;;;3.25;63.83;101252.38;4837181;29;20113;-75
2021/10/25 05:11:17;;;;;;;1.00;1.00;;;;;;;2.93;64.44;101248.16;4837789;29;20069;-75
2021/10/25 05:13:45;;;;;;;1.42;1.42;;;;;;;3.78;62.50;101253.06;4822064;29;20058;-76
2021/10/25 05:16:11;;;;;;;2.08;2.00;;;;;;;3.82;61.42;101259.94;4822352;29;20077;-76
2021/10/25 05:18:42;;;;;;;0.80;0.80;;;;;;;3.64;60.83;101263.44;4839617;29;20066;-76
2021/10/25 05:21:28;;;;;;;1.48;1.48;;;;;;;3.07;63.51;101264.47;4841902;29;20145;-76
2021/10/25 05:23:55;;;;;;;0.90;0.90;;;;;;;2.77;63.63;101277.41;4815973;29;20057;-76
2021/10/25 05:26:22;;;;;;;1.33;1.25;;;;;;;2.80;64.88;101276.53;4815240;29;20458;-75
2021/10/25 05:28:48;;;;;;;2.67;2.45;;;;;;;1.99;66.88;101279.03;4837141;29;20054;-78
2021/10/25 05:31:17;;;;;;;0.90;0.90;;;;;;;2.52;65.31;101280.84;4820754;29;20054;-76
2021/10/25 05:33:44;;;;;;;1.58;1.58;;;;;;;2.83;64.48;101276.53;4831785;29;20402;-79
2021/10/25 05:36:33;;;;;;;5.18;1.98;;;;;;;3.02;63.29;101280.81;4807272;29;20055;-81
2021/10/25 05:39:14;;;;;;;2.05;1.95;;;;;;;3.25;62.77;101280.75;4819618;29;20054;-78
2021/10/25 05:41:44;;;;;;;1.65;1.60;;;;;;;3.06;62.99;101295.44;4840592;29;20078;-77
2021/10/25 05:44:38;;;;;;;1.48;1.48;;;;;;;3.23;63.30;101292.81;4840647;29;20141;-80
2021/10/25 05:47:14;;;;;;;1.27;1.27;;;;;;;3.97;60.48;101280.50;4826077;29;20102;-81
2021/10/25 05:49:41;;;;;;;2.38;2.28;;;;;;;3.71;61.55;101279.75;4819808;29;20052;-78
2021/10/25 05:52:08;;;;;;;1.15;1.15;;;;;;;3.49;62.02;101303.94;4803350;29;20049;-77
2021/10/25 05:54:40;;;;;;;1.10;1.10;;;;;;;3.48;62.31;101304.78;4851488;29;20062;-79
2021/10/25 05:57:16;;;;;;;3.63;1.58;;;;;;;3.72;60.69;101303.88;4822309;29;20069;-79
2021/10/25 05:59:47;;;;;;;1.20;1.20;;;;;;;4.54;58.62;101309.47;4834672;29;20064;-79
2021/10/25 06:02:41;;;;;;;1.45;1.45;;;;;;;4.58;57.52;101306.00;4820821;29;20136;-77
2021/10/25 06:06:05;;;;;;;1.25;1.25;;;;;;;3.47;60.41;101300.50;4835315;29;20053;-79
2021/10/25 06:08:33;;;;;;;1.58;1.48;;;;;;;4.27;59.78;101301.88;4827472;29;20126;-78
2021/10/25 06:11:21;;;;;;;1.30;1.30;;;;;;;3.15;61.76;101314.34;4825916;29;20132;-78
2021/10/25 06:13:47;;;;;;;1.23;1.23;;;;;;;2.61;64.36;101304.03;4821404;29;20046;-78
2021/10/25 06:17:08;;;;;;;1.00;1.00;;;;;;;2.39;63.82;101304.88;4831608;29;20077;-79
2021/10/25 06:20:20;;;;;;;1.20;1.20;;;;;;;3.17;63.18;101313.47;4755427;29;20050;-78
2021/10/25 06:27:18;;;;;;;1.15;1.15;;;;;;;2.85;63.39;101316.91;4788673;29;20174;-77
2021/10/25 06:29:44;;;;;;;1.35;1.35;;;;;;;2.75;64.00;101317.78;4801689;29;20061;-75
2021/10/25 06:32:11;;;;;;;1.17;1.17;;;;;;;3.51;60.90;101315.13;4826696;29;20054;-76
2021/10/25 06:34:42;;;;;;;0.95;0.95;;;;;;;3.95;59.71;101312.38;4833374;29;20525;-76
2021/10/25 06:40:42;;;;;;;0.93;0.93;;;;;;;3.52;60.74;101322.00;4768199;29;20066;-76
2021/10/25 06:43:10;;;;;;;1.08;1.08;;;;;;;3.17;61.64;101321.22;4821048;29;20052;-78
2021/10/25 06:45:36;;;;;;;0.80;0.80;;;;;;;3.33;61.99;101333.22;4831061;29;20053;-76
2021/10/25 06:48:03;;;;;;;0.90;0.90;;;;;;;2.55;63.98;101322.09;4829287;29;20045;-79
2021/10/25 06:50:32;;;;;;;0.95;0.93;;;;;;;3.04;63.87;101328.94;4825482;29;20050;-75
2021/10/25 06:53:04;;;;;;;0.80;0.80;;;;;;;2.80;63.17;101323.81;4816098;29;20384;-76
2021/10/25 06:55:40;;;;;;;0.60;0.60;;;;;;;3.11;62.14;101324.63;4818850;29;20054;-76
2021/10/25 06:58:09;;;;;;;1.48;1.48;;;;;;;2.84;63.34;101330.69;4797044;29;20088;-79
2021/10/25 07:00:38;;;;;;;1.20;1.20;;;;;;;2.66;63.10;101334.97;4817055;29;20098;-78
2021/10/25 07:03:07;;;;;;;0.82;0.82;;;;;;;2.99;62.79;101338.41;4817350;29;20048;-75
2021/10/25 07:05:35;;;;;;;1.25;1.20;;;;;;;3.17;61.45;101339.28;4826800;29;20054;-79
2021/10/25 07:08:22;;;;;;;1.25;1.25;;;;;;;3.11;62.69;101341.00;4817726;29;20140;-79
2021/10/25 07:10:48;;;;;;;13.25;1.40;;;;;;;3.17;62.53;101346.13;4826086;29;20554;-76
2021/10/25 07:13:15;;;;;;;1.27;1.27;;;;;;;2.87;62.59;101340.16;4839825;29;20073;-76
2021/10/25 07:16:01;;;;;;;1.00;1.00;;;;;;;3.34;61.72;101343.53;4831113;29;20044;-78
2021/10/25 08:00:48;;;;;;;1.20;1.20;;;;;;;1.61;68.93;101352.63;4836631;29;20614;-81
2021/10/25 08:06:30;;;;;;;0.93;0.93;;;;;;;2.17;66.96;101367.47;4742524;30;20056;-78
2021/10/25 08:14:47;;;;;;;4.68;1.48;;;;;;;1.84;67.94;101358.75;4798117;29;20049;-79
2021/10/25 08:17:19;;;;;;;1.80;1.70;;;;;;;1.95;67.51;101359.69;4806457;29;20082;-77
2021/10/25 08:19:47;;;;;;;1.40;1.40;;;;;;;1.62;68.36;101344.06;4795721;29;20062;-76
2021/10/25 08:22:16;;;;;;;0.90;0.90;;;;;;;1.73;68.17;101365.59;4818839;29;20100;-78
2021/10/25 08:24:51;;;;;;;1.08;1.08;;;;;;;2.02;67.59;101363.16;4819017;29;20058;-79
2021/10/25 08:27:34;;;;;;;3.70;2.78;;;;;;;2.35;66.03;101372.72;4819505;29;20085;-80
2021/10/25 08:30:00;;;;;;;1.90;1.90;;;;;;;2.91;64.07;101367.66;4806290;29;20429;-80
2021/10/25 08:41:15;;;;;;;2.33;1.70;;;;;;;3.87;60.66;101366.66;4811277;29;20465;-79
2021/10/25 08:43:45;;;;;;;2.20;2.10;;;;;;;3.66;60.83;101354.66;4814943;29;20054;-78
2021/10/25 08:46:14;;;;;;;1.55;1.55;;;;;;;4.19;58.63;101359.63;4805413;29;20072;-78
2021/10/25 08:48:46;;;;;;;2.47;2.38;;;;;;;5.14;55.67;101347.78;4809488;29;20096;-80
2021/10/25 08:51:13;;;;;;;2.10;2.00;;;;;;;5.49;55.33;101346.59;4803108;29;20050;-80
2021/10/25 08:53:39;;;;;;;1.42;1.42;;;;;;;5.27;54.33;101345.09;4835361;29;20050;-80
2021/10/25 08:56:05;;;;;;;1.55;1.55;;;;;;;5.21;55.30;101341.69;4821187;29;20054;-81
2021/10/25 08:58:50;;;;;;;1.15;1.15;;;;;;;4.27;56.64;101345.81;4819424;29;20045;-77
2021/10/25 09:01:29;;;;;;;3.28;3.17;;;;;;;3.57;58.72;101343.50;4817402;29;20122;-78
2021/10/25 09:04:07;;;;;;;2.88;2.35;;;;;;;3.00;61.81;101347.03;4814987;29;20535;-79
2021/10/25 09:06:36;;;;;;;2.83;1.63;;;;;;;3.06;62.37;101345.31;4829129;29;20176;-80
2021/10/25 09:09:04;;;;;;;1.63;1.63;;;;;;;3.02;62.26;101341.00;4817669;29;20054;-80
2021/10/25 09:11:30;;;;;;;1.80;1.70;;;;;;;2.65;62.87;101348.72;4832837;29;21091;-80
2021/10/25 09:14:14;;;;;;;1.50;1.48;;;;;;;2.57;63.13;101340.97;4817258;29;20133;-81
2021/10/25 09:16:45;;;;;;;1.50;1.45;;;;;;;2.39;62.81;101346.09;4829877;29;20061;-80
2021/10/25 09:19:17;;;;;;;15.35;2.80;;;;;;;2.44;62.97;101357.28;4807397;29;20121;-81
2021/10/25 09:21:44;;;;;;;0.82;0.82;;;;;;;2.63;62.71;101351.28;4849261;29;20062;-79
2021/10/25 09:24:19;;;;;;;1.30;1.30;;;;;;;2.84;62.13;101343.59;4812280;29;20496;-79
2021/10/25 09:26:58;;;;;;;1.80;1.52;;;;;;;2.88;62.06;101347.88;4834264;29;20049;-78
2021/10/25 09:29:26;;;;;;;1.10;1.10;;;;;;;3.28;60.62;101340.97;4833548;29;20085;-80
2021/10/25 09:31:56;;;;;;;0.85;0.85;;;;;;;2.71;60.97;101341.00;4819677;29;20070;-80
2021/10/25 09:34:40;;;;;;;1.55;1.55;;;;;;;2.78;60.65;101343.56;4814440;29;20114;-80
2021/10/25 09:37:33;;;;;;;0.80;0.80;;;;;;;3.15;60.27;101342.72;4832167;29;20241;-79
2021/10/25 09:40:09;;;;;;;3.05;2.65;;;;;;;3.00;59.55;101347.88;4846892;29;20045;-77
2021/10/25 09:42:57;;;;;;;1.00;1.00;;;;;;;2.98;60.09;101339.28;4834336;29;20057;-77
2021/10/25 09:45:54;;;;;;;0.73;0.73;;;;;;;2.73;59.57;101329.81;4820515;29;20150;-78
2021/10/25 09:51:06;;;;;;;1.17;1.05;;;;;;;2.67;59.43;101331.53;4817778;29;20046;-77
2021/10/25 09:53:40;;;;;;;1.40;1.35;;;;;;;2.70;59.59;101344.41;4833450;29;20050;-79
2021/10/25 09:56:09;;;;;;;1.30;1.30;;;;;;;2.48;60.23;101341.81;4841931;29;20548;-78
2021/10/25 09:59:07;;;;;;;0.95;0.95;;;;;;;2.85;58.41;101334.09;4820688;29;20049;-76
2021/10/25 10:01:35;;;;;;;2.92;1.42;;;;;;;3.02;58.57;101337.56;4826798;29;20115;-77
2021/10/25 10:04:05;;;;;;;4.22;2.22;;;;;;;2.91;58.67;101337.53;4833352;29;20054;-79
2021/10/25 10:06:58;;;;;;;1.65;1.55;;;;;;;2.87;56.54;101335.84;4831090;29;20839;-79
2021/10/25 10:09:25;;;;;;;1.30;1.30;;;;;;;3.07;55.69;101334.13;4818372;29;20077;-78
2021/10/25 10:11:51;;;;;;;1.05;1.02;;;;;;;3.02;55.77;101328.09;4826358;29;20050;-77
2021/10/25 10:14:17;;;;;;;3.08;2.25;;;;;;;3.43;55.59;101332.34;4820433;29;20058;-77
2021/10/25 10:16:52;;;;;;;1.40;1.30;;;;;;;3.28;56.34;101337.53;4833155;29;20050;-77
2021/10/25 10:19:23;;;;;;;0.98;0.98;;;;;;;3.38;55.17;101323.75;4833639;29;20056;-78
2021/10/25 10:22:08;;;;;;;0.63;0.63;;;;;;;3.56;56.12;101327.16;4832846;29;20054;-75
2021/10/25 10:24:55;;;;;;;1.58;1.15;;;;;;;3.49;55.64;101327.19;4813719;29;20046;-78
2021/10/25 10:27:23;;;;;;;2.53;0.98;;;;;;;3.56;56.04;101318.56;4817653;29;20046;-77
2021/10/25 10:30:01;;;;;;;0.75;0.75;;;;;;;3.21;56.43;101326.34;4825481;29;20061;-79
2021/10/25 10:32:43;;;;;;;1.15;1.15;;;;;;;3.13;56.17;101328.97;4799221;29;20050;-77
2021/10/25 10:35:21;;;;;;;1.58;1.58;;;;;;;3.24;56.54;101316.03;4833206;29;20054;-77
2021/10/25 10:38:06;;;;;;;1.55;1.55;;;;;;;3.29;56.47;101313.44;4834123;29;20099;-77
2021/10/25 10:41:12;;;;;;;0.60;0.60;;;;;;;3.15;56.32;101322.06;4750921;30;20059;-76
2021/10/25 10:44:07;;;;;;;1.48;1.48;;;;;;;3.22;55.78;101320.34;4754093;30;20087;-79
2021/10/25 10:46:44;;;;;;;1.27;1.27;;;;;;;3.13;55.91;101308.31;4811890;29;20066;-78
2021/10/25 10:49:35;;;;;;;0.88;0.88;;;;;;;3.11;55.75;101315.19;4835962;29;20144;-77
2021/10/25 10:52:33;;;;;;;1.00;1.00;;;;;;;3.48;53.78;101305.66;4835200;29;20544;-79
2021/10/25 10:55:06;;;;;;;1.45;1.45;;;;;;;3.27;53.75;101310.03;4843487;29;20140;-76
2021/10/25 11:00:23;;;;;;;0.80;0.80;;;;;;;3.76;53.48;101301.28;4834258;29;20048;-76
2021/10/25 11:02:51;;;;;;;2.40;1.65;;;;;;;3.56;53.29;101303.06;4834414;29;20103;-77
2021/10/25 11:05:31;;;;;;;1.40;1.40;;;;;;;3.51;54.21;101284.13;4833433;29;20050;-78
2021/10/25 11:08:02;;;;;;;2.00;1.15;;;;;;;3.57;54.21;101297.88;4834383;29;20049;-76
2021/10/25 11:10:31;;;;;;;4.22;0.93;;;;;;;3.62;53.30;101291.00;4816787;29;20480;-80
2021/10/25 11:13:29;;;;;;;0.98;0.98;;;;;;;3.52;53.92;101286.72;4833960;29;20046;-81
2021/10/25 11:16:05;;;;;;;0.88;0.88;;;;;;;3.70;53.19;101284.94;4824833;29;20054;-77
2021/10/25 11:18:33;;;;;;;0.63;0.63;;;;;;;3.59;53.42;101272.94;4827874;29;20525;-79
2021/10/25 11:21:16;;;;;;;1.70;1.70;;;;;;;3.74;53.12;101276.31;4809194;29;20476;-79
2021/10/25 11:23:50;;;;;;;1.10;1.10;;;;;;;3.88;53.11;101277.97;4809121;29;20062;-78
2021/10/25 11:26:38;;;;;;;7.00;1.48;;;;;;;3.75;53.45;101278.91;4815495;29;20050;-77
2021/10/25 11:29:31;;;;;;;1.15;1.15;;;;;;;3.58;53.13;101280.66;4826229;29;20062;-81
2021/10/25 11:31:59;;;;;;;1.02;1.02;;;;;;;3.24;54.05;101285.06;4813128;29;20042;-80
2021/10/25 11:34:30;;;;;;;2.05;1.95;;;;;;;3.11;53.63;101280.78;4827425;29;20128;-79
2021/10/25 11:37:10;;;;;;;1.33;1.25;;;;;;;3.03;53.71;101296.28;4829381;29;20113;-80
2021/10/25 11:39:46;;;;;;;2.35;2.25;;;;;;;3.05;53.92;101279.09;4816965;29;20057;-80
2021/10/25 11:42:23;;;;;;;1.00;1.00;;;;;;;3.10;53.86;101273.94;4813892;29;20046;-78
2021/10/25 11:44:51;;;;;;;0.68;0.68;;;;;;;3.10;54.37;101274.78;4812326;29;20054;-80
2021/10/25 11:47:17;;;;;;;1.27;1.23;;;;;;;3.25;53.86;101278.19;4796694;29;20046;-80
2021/10/25 11:49:43;;;;;;;1.20;1.20;;;;;;;3.36;54.19;101272.16;4829996;29;20085;-81
2021/10/25 11:52:10;;;;;;;31.77;1.88;;;;;;;3.35;53.92;101278.16;4813527;29;20120;-80
2021/10/25 11:54:54;;;;;;;2.08;1.98;;;;;;;3.35;53.64;101266.97;4798598;29;20049;-83
2021/10/25 11:57:21;;;;;;;0.90;0.90;;;;;;;3.39;52.93;101268.69;4800485;29;20057;-80
2021/10/25 12:00:04;;;;;;;1.05;1.05;;;;;;;3.42;53.14;101255.78;4827958;29;20141;-80
2021/10/25 12:02:38;;;;;;;0.40;0.40;;;;;;;3.25;53.08;101249.78;4812413;29;20050;-79
2021/10/25 12:05:06;;;;;;;0.50;0.50;;;;;;;3.18;54.22;101246.38;4783127;29;20138;-79
2021/10/25 12:07:32;;;;;;;0.98;0.98;;;;;;;3.18;53.23;101248.94;4811570;29;20082;-78
2021/10/25 12:10:03;;;;;;;0.57;0.57;;;;;;;3.27;52.95;101242.94;4826584;29;20045;-79
2021/10/25 12:12:29;;;;;;;0.75;0.75;;;;;;;3.32;52.54;101241.19;4814473;29;20062;-78
2021/10/25 12:15:04;;;;;;;0.40;0.40;;;;;;;3.31;52.83;101236.88;4818781;29;20074;-78
2021/10/25 12:17:35;;;;;;;0.63;0.63;;;;;;;3.31;52.88;101239.44;4805617;29;20118;-80
2021/10/25 12:20:04;;;;;;;0.88;0.88;;;;;;;3.31;52.51;101242.03;4831019;29;20092;-79
2021/10/25 12:22:31;;;;;;;0.88;0.88;;;;;;;3.32;52.80;101241.19;4839524;29;20070;-79
2021/10/25 12:24:57;;;;;;;0.65;0.65;;;;;;;3.34;52.25;101231.72;4840716;29;20053;-80
2021/10/25 12:27:28;;;;;;;1.20;1.17;;;;;;;3.43;52.42;101239.44;4851783;29;20109;-80
2021/10/25 12:29:59;;;;;;;0.60;0.60;;;;;;;3.46;52.32;101235.13;4854997;29;20056;-78
2021/10/25 12:32:25;;;;;;;1.88;1.00;;;;;;;3.52;52.26;101240.25;4853188;29;20364;-80
2021/10/25 12:34:55;;;;;;;0.68;0.68;;;;;;;3.39;52.54;101229.97;4849874;29;20069;-79
2021/10/25 12:37:29;;;;;;;0.75;0.75;;;;;;;3.38;52.63;101238.56;4842715;29;20065;-81
2021/10/25 12:39:55;;;;;;;0.70;0.70;;;;;;;3.28;53.16;101229.16;4840896;29;20050;-80
2021/10/25 12:42:28;;;;;;;0.50;0.50;;;;;;;3.20;53.14;101234.34;4839680;29;20054;-80
2021/10/25 12:44:55;;;;;;;0.80;0.80;;;;;;;3.09;53.63;101231.78;4838166;29;20061;-81
2021/10/25 12:47:25;;;;;;;1.20;1.13;;;;;;;3.05;53.84;101226.63;4838070;29;20050;-80
2021/10/25 12:49:55;;;;;;;0.63;0.63;;;;;;;3.04;54.71;101219.78;4841119;29;20065;-80
2021/10/25 12:52:22;;;;;;;0.70;0.70;;;;;;;3.03;53.93;101218.91;4843770;29;20148;-80
2021/10/25 12:54:48;;;;;;;1.02;1.02;;;;;;;3.09;54.45;101223.19;4842516;29;20140;-80
2021/10/25 12:57:22;;;;;;;1.15;1.15;;;;;;;3.13;54.53;101228.34;4842578;29;20054;-82
2021/10/25 13:00:11;;;;;;;1.48;1.38;;;;;;;3.23;53.84;101228.31;4841685;29;20057;-80
2021/10/25 13:02:48;;;;;;;1.52;1.40;;;;;;;3.31;54.05;101223.97;4842880;29;20064;-79
2021/10/25 13:05:19;;;;;;;0.60;0.60;;;;;;;3.32;53.92;101213.66;4842800;29;20068;-80
2021/10/25 13:07:55;;;;;;;1.15;1.13;;;;;;;3.33;54.08;101217.97;4855184;29;20046;-80
2021/10/25 13:10:23;;;;;;;4.28;0.82;;;;;;;3.35;54.45;101215.34;4841583;29;20458;-79
2021/10/25 13:12:49;;;;;;;6.93;1.55;;;;;;;3.34;53.98;101211.91;4841626;29;20142;-82
2021/10/25 13:15:16;;;;;;;1.10;1.10;;;;;;;3.35;54.78;101208.47;4841385;29;20057;-81
2021/10/25 13:17:42;;;;;;;1.20;1.20;;;;;;;3.37;55.09;101205.91;4842738;29;20064;-79
2021/10/25 13:20:10;;;;;;;0.93;0.93;;;;;;;3.31;54.53;101199.03;4840321;29;20049;-80
2021/10/25 13:22:35;;;;;;;0.95;0.95;;;;;;;3.35;55.12;101195.56;4860058;29;20531;-80
2021/10/25 13:25:02;;;;;;;1.35;1.25;;;;;;;3.32;55.58;101199.88;4861278;29;20045;-80
2021/10/25 13:27:28;;;;;;;0.80;0.80;;;;;;;3.27;55.70;101196.47;4868088;29;20265;-79
2021/10/25 13:29:54;;;;;;;0.47;0.47;;;;;;;3.19;55.41;101187.91;4861318;29;20627;-80
2021/10/25 13:32:21;;;;;;;0.93;0.93;;;;;;;3.10;55.73;101187.09;4865328;29;20063;-76
2021/10/25 13:34:48;;;;;;;1.65;1.65;;;;;;;3.11;56.37;101185.34;4862648;29;20486;-74
2021/10/25 13:37:14;;;;;;;1.17;1.17;;;;;;;3.06;56.38;101187.94;4843534;29;20076;-76
2021/10/25 13:39:40;;;;;;;1.00;1.00;;;;;;;3.01;56.81;101194.81;4860198;29;20089;-76
2021/10/25 13:42:07;;;;;;;0.65;0.65;;;;;;;2.90;57.11;101175.94;4860053;29;20045;-76